KMDW/MDW METAR and TAF weather

Enter ICAO airport designator
Station Type Date Time Source
KMDW METAR 2020/02/19 13:53 UTC NOAA

KMDW 191353Z 33008KT 10SM FEW025 FEW250 M07/M17 A3060 RMK AO2 SLP379 T10721167


Station Type Date Time Source
KMDW Decoded METAR 2020/02/19 13:53 UTC NOAA

CHICAGO MIDWAY AIRPORT, IL, United States (KMDW) 41-47N 087-45W 188M
Feb 19, 2020 - 08:53 AM EST / 2020.02.19 1353 UTC
Wind: from the NNW (330 degrees) at 9 MPH (8 KT):0
Visibility: 10 mile(s):0
Sky conditions: mostly clear
Temperature: 19.0 F (-7.2 C)
Windchill: 8 F (-13 C):1
Dew Point: 1.9 F (-16.7 C)
Relative Humidity: 46%
Pressure (altimeter): 30.6 in. Hg (1036 hPa)
ob: KMDW 191353Z 33008KT 10SM FEW025 FEW250 M07/M17 A3060 RMK AO2 SLP379 T10721167
cycle: 14

Station Type Date Time Source
KMDW TAF 2020/02/19 15:45 UTC NOAA

TAF
AMD KMDW 191443Z 1915/2018 34010KT P6SM SCT080
FM192200 35007KT P6SM BKN070
FM200400 34011KT P6SM OVC050
FM201300 34010KT P6SM SKC

Example: see airport list